Time,TemperatureF,DewpointF,PressureIn,WindDirection,WindDirectionDegrees,WindSpeedMPH,WindSpeedGustMPH,Humidity,HourlyPrecipIn,Conditions,Clouds,dailyrainin,SoftwareType,DateUTC
2013-11-06 04:00:00,56.0,18.0,-100.00,NNE,27,2.0,-999.0,22,0.00,,,-99.99,,2013-11-06 12:00:00,
2013-11-06 04:42:00,56.0,18.0,-100.00,NNE,27,2.0,-999.0,22,0.00,,,-99.99,,2013-11-06 12:42:00,
2013-11-06 04:52:00,56.0,18.0,-100.00,NNE,27,2.0,-999.0,22,0.00,,,-99.99,,2013-11-06 12:52:00,
2013-11-06 05:00:00,64.0,15.0,-100.00,ESE,114,4.0,-999.0,14,0.00,,,-99.99,,2013-11-06 13:00:00,
2013-11-06 05:42:00,64.0,15.0,-100.00,ESE,114,4.0,-999.0,14,0.00,,,-99.99,,2013-11-06 13:42:00,
2013-11-06 05:52:00,64.0,15.0,-100.00,ESE,114,4.0,-999.0,14,0.00,,,-99.99,,2013-11-06 13:52:00,
2013-11-06 06:00:00,60.0,17.0,-100.00,South,176,2.0,-999.0,18,0.00,,,-99.99,,2013-11-06 14:00:00,
2013-11-06 06:42:00,60.0,17.0,-100.00,South,176,2.0,-999.0,18,0.00,,,-99.99,,2013-11-06 14:42:00,
2013-11-06 06:52:00,60.0,17.0,-100.00,South,176,2.0,-999.0,18,0.00,,,-99.99,,2013-11-06 14:52:00,
2013-11-06 07:00:00,55.0,20.0,-100.00,West,262,1.0,-999.0,25,0.00,,,-99.99,,2013-11-06 15:00:00,
2013-11-06 07:43:00,55.0,20.0,-100.00,West,262,1.0,-999.0,25,0.00,,,-99.99,,2013-11-06 15:43:00,
2013-11-06 07:53:00,55.0,20.0,-100.00,West,262,1.0,-999.0,25,0.00,,,-99.99,,2013-11-06 15:53:00,
2013-11-06 08:00:00,69.0,17.0,-100.00,East,95,5.0,-999.0,13,0.00,,,-99.99,,2013-11-06 16:00:00,
2013-11-06 08:43:00,69.0,17.0,-100.00,East,95,5.0,-999.0,13,0.00,,,-99.99,,2013-11-06 16:43:00,
2013-11-06 08:53:00,69.0,17.0,-100.00,East,95,5.0,-999.0,13,0.00,,,-99.99,,2013-11-06 16:53:00,
2013-11-06 09:00:00,73.0,16.0,-100.00,East,99,12.0,-999.0,11,0.00,,,-99.99,,2013-11-06 17:00:00,
2013-11-06 09:43:00,73.0,16.0,-100.00,East,99,12.0,-999.0,11,0.00,,,-99.99,,2013-11-06 17:43:00,
2013-11-06 09:52:00,73.0,16.0,-100.00,East,99,12.0,-999.0,11,0.00,,,-99.99,,2013-11-06 17:52:00,
2013-11-06 10:00:00,76.0,15.0,-100.00,ENE,61,15.0,-999.0,10,0.00,,,-99.99,,2013-11-06 18:00:00,
2013-11-06 10:42:00,76.0,15.0,-100.00,ENE,61,15.0,-999.0,10,0.00,,,-99.99,,2013-11-06 18:42:00,
2013-11-06 10:52:00,76.0,15.0,-100.00,ENE,61,15.0,-999.0,10,0.00,,,-99.99,,2013-11-06 18:52:00,
2013-11-06 11:00:00,78.0,14.0,-100.00,East,94,11.0,-999.0,8,0.00,,,-99.99,,2013-11-06 19:00:00,
2013-11-06 11:42:00,78.0,14.0,-100.00,East,94,11.0,-999.0,8,0.00,,,-99.99,,2013-11-06 19:42:00,
2013-11-06 11:52:00,78.0,14.0,-100.00,East,94,11.0,-999.0,8,0.00,,,-99.99,,2013-11-06 19:52:00,
2013-11-06 12:00:00,81.0,14.0,-100.00,East,91,17.0,-999.0,8,0.00,,,-99.99,,2013-11-06 20:00:00,
2013-11-06 12:42:00,81.0,14.0,-100.00,East,91,17.0,-999.0,8,0.00,,,-99.99,,2013-11-06 20:42:00,
2013-11-06 12:52:00,81.0,14.0,-100.00,East,91,17.0,-999.0,8,0.00,,,-99.99,,2013-11-06 20:52:00,
2013-11-06 14:00:00,82.0,-99.9,-100.00,East,96,9.0,-999.0,7,0.00,,,-99.99,,2013-11-06 22:00:00,
2013-11-06 14:43:00,82.0,-99.9,-100.00,East,96,9.0,-999.0,7,0.00,,,-99.99,,2013-11-06 22:43:00,
2013-11-06 14:53:00,82.0,-99.9,-100.00,East,96,9.0,-999.0,7,0.00,,,-99.99,,2013-11-06 22:53:00,
2013-11-06 15:00:00,82.0,31.0,-100.00,South,172,4.0,-999.0,15,0.00,,,-99.99,,2013-11-06 23:00:00,
2013-11-06 15:42:00,82.0,31.0,-100.00,South,172,4.0,-999.0,15,0.00,,,-99.99,,2013-11-06 23:42:00,
2013-11-06 15:53:00,82.0,31.0,-100.00,South,172,4.0,-999.0,15,0.00,,,-99.99,,2013-11-06 23:53:00,
2013-11-06 16:00:00,76.0,33.0,-100.00,WSW,239,4.0,-999.0,21,0.00,,,-99.99,,2013-11-07 00:00:00,
2013-11-06 16:42:00,76.0,33.0,-100.00,WSW,239,4.0,-999.0,21,0.00,,,-99.99,,2013-11-07 00:42:00,
2013-11-06 16:52:00,76.0,33.0,-100.00,WSW,239,4.0,-999.0,21,0.00,,,-99.99,,2013-11-07 00:52:00,
2013-11-06 17:00:00,71.0,34.0,-100.00,SW,236,1.0,-999.0,26,0.00,,,-99.99,,2013-11-07 01:00:00,
2013-11-06 17:42:00,71.0,34.0,-100.00,SW,236,1.0,-999.0,26,0.00,,,-99.99,,2013-11-07 01:42:00,
2013-11-06 17:52:00,71.0,34.0,-100.00,SW,236,1.0,-999.0,26,0.00,,,-99.99,,2013-11-07 01:52:00,
2013-11-06 18:00:00,62.0,39.0,-100.00,West,265,2.0,-999.0,42,0.00,,,-99.99,,2013-11-07 02:00:00,
2013-11-06 18:53:00,62.0,39.0,-100.00,West,265,2.0,-999.0,42,0.00,,,-99.99,,2013-11-07 02:53:00,
2013-11-06 19:00:00,55.0,38.0,-100.00,NNW,327,2.0,-999.0,52,0.00,,,-99.99,,2013-11-07 03:00:00,
2013-11-06 19:44:00,55.0,38.0,-100.00,NNW,327,2.0,-999.0,52,0.00,,,-99.99,,2013-11-07 03:44:00,
2013-11-06 19:55:00,55.0,38.0,-100.00,NNW,327,2.0,-999.0,52,0.00,,,-99.99,,2013-11-07 03:55:00,
2013-11-06 20:00:00,53.0,37.0,-100.00,NE,37,2.0,-999.0,54,0.00,,,-99.99,,2013-11-07 04:00:00,
2013-11-06 20:43:00,53.0,37.0,-100.00,NE,37,2.0,-999.0,54,0.00,,,-99.99,,2013-11-07 04:43:00,
2013-11-06 20:53:00,53.0,37.0,-100.00,NE,37,2.0,-999.0,54,0.00,,,-99.99,,2013-11-07 04:53:00,
2013-11-06 22:00:00,57.0,27.0,-100.00,SW,216,1.0,-999.0,31,0.00,,,-99.99,,2013-11-07 06:00:00,
2013-11-06 22:42:00,57.0,27.0,-100.00,SW,216,1.0,-999.0,31,0.00,,,-99.99,,2013-11-07 06:42:00,
2013-11-06 22:52:00,57.0,27.0,-100.00,SW,216,1.0,-999.0,31,0.00,,,-99.99,,2013-11-07 06:52:00,